Time;durP1;ratioP1;P1;durP2;ratioP2;P2;SDS_P1;SDS_P2;PMS_P1;PMS_P2;Temp;Humidity;BMP_temperature;BMP_pressure;BME280_temperature;BME280_humidity;BME280_pressure;Samples;Min_cycle;Max_cycle;Signal;HPM_P1;HPM_P2
2023/06/12 00:00:05;;;;;;;0.00;0.00;;;;;;;23.23;nan;100282.97;5055404;28;20481;-83
2023/06/12 00:02:31;;;;;;;0.00;0.00;;;;;;;23.18;nan;100282.88;5072369;28;21011;-83
2023/06/12 00:04:57;;;;;;;0.00;0.00;;;;;;;23.15;nan;100288.75;5064006;28;20435;-84
2023/06/12 00:07:22;;;;;;;0.00;0.00;;;;;;;23.24;nan;100281.91;5052561;28;20405;-83
2023/06/12 00:09:48;;;;;;;0.00;0.00;;;;;;;23.22;nan;100286.75;5074357;28;20429;-83
2023/06/12 00:12:13;;;;;;;0.00;0.00;;;;;;;23.21;nan;100279.69;5055666;28;20420;-84
2023/06/12 00:14:39;;;;;;;0.00;0.00;;;;;;;23.25;nan;100289.75;5067478;28;20774;-83
2023/06/12 00:17:04;;;;;;;0.00;0.00;;;;;;;23.25;nan;100291.63;5054720;28;20467;-83
2023/06/12 00:19:30;;;;;;;0.00;0.00;;;;;;;23.17;nan;100283.91;5051890;28;20476;-84
2023/06/12 00:21:56;;;;;;;0.00;0.00;;;;;;;23.18;nan;100293.66;5052842;28;20431;-84
2023/06/12 00:24:21;;;;;;;0.00;0.00;;;;;;;23.30;nan;100297.13;5055266;28;20408;-83
2023/06/12 00:26:47;;;;;;;0.00;0.00;;;;;;;23.30;nan;100295.25;5056160;28;21150;-82
2023/06/12 00:29:12;;;;;;;0.00;0.00;;;;;;;23.27;nan;100295.72;5061722;28;20429;-84
2023/06/12 00:31:37;;;;;;;0.00;0.00;;;;;;;23.33;nan;100299.34;5059432;28;20444;-82
2023/06/12 00:34:02;;;;;;;0.00;0.00;;;;;;;23.26;nan;100287.88;5058889;28;20475;-85
2023/06/12 00:36:28;;;;;;;0.00;0.00;;;;;;;23.30;nan;100292.53;5057829;28;20660;-85
2023/06/12 00:38:53;;;;;;;0.00;0.00;;;;;;;23.32;nan;100295.81;5061005;28;20424;-84
2023/06/12 00:41:18;;;;;;;0.00;0.00;;;;;;;23.22;nan;100292.13;5075746;28;20474;-86
2023/06/12 00:43:44;;;;;;;0.00;0.00;;;;;;;23.29;nan;100299.00;5058671;28;20479;-84
2023/06/12 00:46:10;;;;;;;0.00;0.00;;;;;;;23.32;nan;100297.72;5048218;28;20504;-82
2023/06/12 00:48:37;;;;;;;0.00;0.00;;;;;;;23.34;nan;100303.69;5058293;28;20409;-83
2023/06/12 00:51:03;;;;;;;0.00;0.00;;;;;;;23.24;nan;100300.78;5054849;28;20433;-83
2023/06/12 00:53:28;;;;;;;0.00;0.00;;;;;;;23.25;nan;100297.84;5067086;28;20427;-84
2023/06/12 00:55:54;;;;;;;0.00;0.00;;;;;;;23.21;nan;100307.47;5064897;28;20407;-83
2023/06/12 00:58:20;;;;;;;0.00;0.00;;;;;;;23.20;nan;100302.34;5067369;28;20476;-83
2023/06/12 01:00:48;;;;;;;0.00;0.00;;;;;;;23.06;nan;100305.31;5064452;28;20402;-83
2023/06/12 01:03:13;;;;;;;0.00;0.00;;;;;;;23.01;nan;100307.09;5065463;28;20445;-83
2023/06/12 01:05:42;;;;;;;0.00;0.00;;;;;;;22.98;nan;100297.59;5065395;28;20484;-83
2023/06/12 01:08:37;;;;;;;0.00;0.00;;;;;;;22.99;nan;100304.63;5059381;28;20468;-83
2023/06/12 01:11:07;;;;;;;0.00;0.00;;;;;;;22.82;nan;100304.53;5059328;28;20417;-84
2023/06/12 01:13:33;;;;;;;0.00;0.00;;;;;;;22.74;nan;100306.75;5063565;28;20786;-84
2023/06/12 01:15:59;;;;;;;0.00;0.00;;;;;;;22.62;nan;100304.94;5065999;28;20410;-84
2023/06/12 01:18:25;;;;;;;0.00;0.00;;;;;;;22.59;nan;100305.38;5062178;28;20498;-82
2023/06/12 01:20:53;;;;;;;0.00;0.00;;;;;;;22.50;nan;100306.81;5057120;28;20398;-83
2023/06/12 01:23:36;;;;;;;0.00;0.00;;;;;;;22.42;nan;100307.97;5063132;28;20405;-82
2023/06/12 01:26:25;;;;;;;0.00;0.00;;;;;;;22.32;nan;100307.75;5058454;28;20505;-81
2023/06/12 01:29:15;;;;;;;0.00;0.00;;;;;;;22.14;nan;100305.94;5054089;28;20445;-81
2023/06/12 01:31:56;;;;;;;0.00;0.00;;;;;;;22.03;nan;100312.16;5054436;28;20434;-83
2023/06/12 01:34:28;;;;;;;0.00;0.00;;;;;;;21.95;nan;100309.81;5067177;28;20404;-84
2023/06/12 01:37:05;;;;;;;0.00;0.00;;;;;;;21.92;nan;100310.28;5063407;28;20436;-82
2023/06/12 01:39:35;;;;;;;0.00;0.00;;;;;;;21.93;nan;100315.44;5054142;28;20456;-84
2023/06/12 01:42:02;;;;;;;0.00;0.00;;;;;;;21.79;nan;100312.13;5064077;28;20413;-83
2023/06/12 01:44:27;;;;;;;0.00;0.00;;;;;;;21.70;nan;100310.00;5053013;28;20411;-83
2023/06/12 01:46:52;;;;;;;0.00;0.00;;;;;;;21.73;nan;100312.22;5052302;28;20395;-83
2023/06/12 01:49:18;;;;;;;0.00;0.00;;;;;;;21.72;nan;100315.97;5062047;28;20399;-83
2023/06/12 01:51:43;;;;;;;0.00;0.00;;;;;;;21.65;nan;100312.56;5063961;28;20403;-83
2023/06/12 01:54:08;;;;;;;0.00;0.00;;;;;;;21.68;nan;100315.59;5067647;28;20894;-83
2023/06/12 01:56:33;;;;;;;0.00;0.00;;;;;;;21.57;nan;100309.16;5068104;28;20436;-83
2023/06/12 01:58:59;;;;;;;0.00;0.00;;;;;;;21.61;nan;100312.19;5068242;28;20456;-83
2023/06/12 02:01:26;;;;;;;0.00;0.00;;;;;;;21.52;nan;100308.19;5069910;28;20408;-83
2023/06/12 02:03:53;;;;;;;0.00;0.00;;;;;;;21.51;nan;100315.44;5063395;28;20447;-82
2023/06/12 02:06:18;;;;;;;0.00;0.00;;;;;;;21.50;nan;100310.28;5069093;28;20408;-83
2023/06/12 02:08:44;;;;;;;0.00;0.00;;;;;;;21.45;nan;100313.66;5063353;28;20399;-83
2023/06/12 02:11:09;;;;;;;0.00;0.00;;;;;;;21.41;nan;100313.31;5063957;28;20399;-84
2023/06/12 02:13:35;;;;;;;0.00;0.00;;;;;;;21.47;nan;100318.81;5062770;28;21067;-82
2023/06/12 02:16:05;;;;;;;0.00;0.00;;;;;;;21.51;nan;100317.31;5062773;28;20900;-83
2023/06/12 02:18:31;;;;;;;0.00;0.00;;;;;;;21.36;nan;100313.16;5060611;28;20390;-83
2023/06/12 02:20:56;;;;;;;0.00;0.00;;;;;;;21.40;nan;100313.53;5056401;28;20416;-83
2023/06/12 02:23:21;;;;;;;0.00;0.00;;;;;;;21.36;nan;100315.03;5061465;28;20412;-83
2023/06/12 02:25:47;;;;;;;0.00;0.00;;;;;;;21.27;nan;100313.69;5053059;28;20418;-82
2023/06/12 02:28:12;;;;;;;0.00;0.00;;;;;;;21.38;nan;100319.13;5055221;28;20478;-83
2023/06/12 02:30:38;;;;;;;0.00;0.00;;;;;;;21.42;nan;100317.63;5059183;28;20466;-83
2023/06/12 02:33:09;;;;;;;0.00;0.00;;;;;;;21.35;nan;100316.06;5055932;28;20416;-82
2023/06/12 02:35:37;;;;;;;0.00;0.00;;;;;;;21.34;nan;100315.25;5060672;28;20454;-83
2023/06/12 02:38:02;;;;;;;0.00;0.00;;;;;;;21.42;nan;100320.31;5059068;28;20461;-82
2023/06/12 02:40:28;;;;;;;0.00;0.00;;;;;;;21.30;nan;100322.13;5052652;28;20396;-82
2023/06/12 02:42:53;;;;;;;0.00;0.00;;;;;;;21.26;nan;100318.25;5055242;28;20421;-82
2023/06/12 02:45:22;;;;;;;0.00;0.00;;;;;;;21.26;nan;100323.63;5062179;28;21064;-83
2023/06/12 02:47:47;;;;;;;0.00;0.00;;;;;;;21.33;nan;100321.69;5050449;28;20405;-83
2023/06/12 02:50:12;;;;;;;0.00;0.00;;;;;;;21.21;nan;100321.63;5047188;28;20414;-83
2023/06/12 02:52:39;;;;;;;0.00;0.00;;;;;;;21.24;nan;100319.50;5052574;28;20405;-83
2023/06/12 02:55:06;;;;;;;0.00;0.00;;;;;;;21.30;nan;100330.19;5055513;28;20506;-83
2023/06/12 02:57:32;;;;;;;0.00;0.00;;;;;;;21.23;nan;100329.44;5048528;28;20733;-83
2023/06/12 02:59:57;;;;;;;0.00;0.00;;;;;;;21.20;nan;100324.53;5057831;28;20417;-83
2023/06/12 03:02:22;;;;;;;0.00;0.00;;;;;;;21.20;nan;100324.53;5052933;28;20407;-82
2023/06/12 03:04:48;;;;;;;0.00;0.00;;;;;;;21.14;nan;100326.28;5055106;28;20417;-82
2023/06/12 03:07:16;;;;;;;0.00;0.00;;;;;;;21.10;nan;100326.94;5064769;28;20413;-83
2023/06/12 03:09:42;;;;;;;0.00;0.00;;;;;;;21.02;nan;100319.16;5057137;28;20416;-82
2023/06/12 03:12:07;;;;;;;0.00;0.00;;;;;;;20.92;nan;100317.00;5048422;28;20989;-83
2023/06/12 03:14:33;;;;;;;0.00;0.00;;;;;;;20.95;nan;100330.84;5057694;28;20439;-81
2023/06/12 03:16:58;;;;;;;0.00;0.00;;;;;;;20.85;nan;100330.53;5051467;28;20418;-83
2023/06/12 03:19:24;;;;;;;0.00;0.00;;;;;;;20.87;nan;100336.50;5050283;28;20491;-82
2023/06/12 03:21:49;;;;;;;0.00;0.00;;;;;;;20.90;nan;100336.03;5058250;28;20417;-85
2023/06/12 03:24:15;;;;;;;0.00;0.00;;;;;;;20.88;nan;100337.31;5064469;28;20418;-86
2023/06/12 03:26:41;;;;;;;0.00;0.00;;;;;;;20.96;nan;100339.72;5057186;28;20412;-83
2023/06/12 03:29:07;;;;;;;0.00;0.00;;;;;;;20.85;nan;100335.91;5067403;28;20494;-83
2023/06/12 03:31:33;;;;;;;0.00;0.00;;;;;;;20.88;nan;100343.53;5056801;28;20441;-82
2023/06/12 03:33:58;;;;;;;0.00;0.00;;;;;;;20.94;nan;100342.63;5066088;28;20409;-84
2023/06/12 03:36:25;;;;;;;0.00;0.00;;;;;;;21.06;nan;100344.56;5058410;28;20388;-84
2023/06/12 03:38:50;;;;;;;0.00;0.00;;;;;;;20.96;nan;100347.78;5061692;28;20401;-85
2023/06/12 03:41:16;;;;;;;0.00;0.00;;;;;;;21.05;nan;100349.13;5062113;28;20399;-85
2023/06/12 03:43:43;;;;;;;0.00;0.00;;;;;;;21.02;nan;100349.56;5057609;28;20412;-83
2023/06/12 03:46:08;;;;;;;0.00;0.00;;;;;;;20.97;nan;100347.56;5068814;28;20416;-84
2023/06/12 03:48:33;;;;;;;0.00;0.00;;;;;;;20.94;nan;100352.56;5058333;28;20400;-83
2023/06/12 03:50:59;;;;;;;0.00;0.00;;;;;;;20.96;nan;100350.47;5066571;28;20396;-82
2023/06/12 03:53:24;;;;;;;0.00;0.00;;;;;;;20.85;nan;100372.72;5058391;28;20479;-84
2023/06/12 03:55:50;;;;;;;0.00;0.00;;;;;;;20.97;nan;100370.91;5062293;28;20411;-84
2023/06/12 03:58:17;;;;;;;0.00;0.00;;;;;;;20.92;nan;100374.28;5067156;28;20775;-83
2023/06/12 04:00:47;;;;;;;0.00;0.00;;;;;;;20.80;nan;100373.38;5053826;28;20411;-85
2023/06/12 04:03:17;;;;;;;0.00;0.00;;;;;;;20.83;nan;100380.16;5063364;28;20812;-85
2023/06/12 04:05:43;;;;;;;0.00;0.00;;;;;;;20.77;nan;100380.03;5057653;28;20410;-83
2023/06/12 04:08:09;;;;;;;0.00;0.00;;;;;;;20.93;nan;100380.50;5050828;28;20798;-84
2023/06/12 04:10:35;;;;;;;0.00;0.00;;;;;;;20.89;nan;100382.78;5051827;28;20766;-84
2023/06/12 04:13:00;;;;;;;0.00;0.00;;;;;;;20.87;nan;100387.56;5049385;28;20758;-85
2023/06/12 04:15:28;;;;;;;0.00;0.00;;;;;;;20.94;nan;100393.69;5054972;28;20397;-83
2023/06/12 04:17:55;;;;;;;0.00;0.00;;;;;;;20.90;nan;100389.81;5065075;28;20404;-81
2023/06/12 04:20:20;;;;;;;0.00;0.00;;;;;;;20.88;nan;100391.91;5057409;28;20430;-83
2023/06/12 04:22:47;;;;;;;0.00;0.00;;;;;;;20.96;nan;100393.47;5068505;28;20400;-83
2023/06/12 04:25:13;;;;;;;0.00;0.00;;;;;;;20.94;nan;100385.63;5059499;28;20409;-82
2023/06/12 04:27:40;;;;;;;0.00;0.00;;;;;;;20.81;nan;100387.63;5065380;28;20417;-84
2023/06/12 04:30:06;;;;;;;0.00;0.00;;;;;;;20.85;nan;100392.34;5055996;28;20421;-84
2023/06/12 04:32:32;;;;;;;0.00;0.00;;;;;;;20.88;nan;100389.22;5047954;28;20401;-84
2023/06/12 04:34:58;;;;;;;0.00;0.00;;;;;;;20.92;nan;100392.28;5062069;28;20420;-84
2023/06/12 04:37:23;;;;;;;0.00;0.00;;;;;;;21.08;nan;100398.94;5051672;28;20416;-84
2023/06/12 04:39:50;;;;;;;0.00;0.00;;;;;;;21.13;nan;100405.28;5047870;28;20508;-83
2023/06/12 04:42:17;;;;;;;0.00;0.00;;;;;;;21.05;nan;100410.16;5053785;28;20439;-84
2023/06/12 04:44:42;;;;;;;0.00;0.00;;;;;;;21.09;nan;100409.44;5057127;28;20507;-85
2023/06/12 04:47:10;;;;;;;0.00;0.00;;;;;;;21.06;nan;100407.22;5053422;28;20826;-84
2023/06/12 04:49:37;;;;;;;0.00;0.00;;;;;;;20.90;nan;100410.50;5052211;28;20421;-84
2023/06/12 04:52:03;;;;;;;0.00;0.00;;;;;;;21.03;nan;100413.06;5052418;28;20418;-85
2023/06/12 04:54:35;;;;;;;0.00;0.00;;;;;;;21.14;nan;100411.47;5057293;28;20392;-85
2023/06/12 04:57:16;;;;;;;0.00;0.00;;;;;;;21.28;nan;100414.81;5066203;28;20458;-85
2023/06/12 04:59:45;;;;;;;0.00;0.00;;;;;;;21.35;nan;100413.69;5062796;28;20473;-85
2023/06/12 05:02:11;;;;;;;0.00;0.00;;;;;;;21.46;nan;100408.66;5054865;28;20417;-83
2023/06/12 05:04:37;;;;;;;0.00;0.00;;;;;;;21.61;nan;100401.81;5066516;28;20412;-85
2023/06/12 05:07:04;;;;;;;0.00;0.00;;;;;;;21.65;nan;100407.56;5061542;28;20433;-84
2023/06/12 05:09:30;;;;;;;0.00;0.00;;;;;;;21.65;nan;100402.19;5053620;28;20432;-84
2023/06/12 05:11:55;;;;;;;0.00;0.00;;;;;;;21.83;nan;100404.84;5058687;28;20925;-84
2023/06/12 05:14:20;;;;;;;0.00;0.00;;;;;;;21.77;nan;100408.44;5064545;28;20934;-84
2023/06/12 05:16:46;;;;;;;0.00;0.00;;;;;;;21.90;nan;100410.09;5067180;28;20418;-85
2023/06/12 05:19:12;;;;;;;0.00;0.00;;;;;;;22.00;nan;100399.63;5058777;28;20498;-81
2023/06/12 05:21:39;;;;;;;0.00;0.00;;;;;;;22.19;nan;100403.06;5056830;28;20404;-85
2023/06/12 05:24:05;;;;;;;0.00;0.00;;;;;;;22.29;nan;100415.16;5064703;28;20400;-84
2023/06/12 05:26:30;;;;;;;0.00;0.00;;;;;;;22.42;nan;100412.25;5058044;28;20404;-84
2023/06/12 05:28:57;;;;;;;0.00;0.00;;;;;;;22.58;nan;100411.56;5061293;28;20444;-83
2023/06/12 05:31:23;;;;;;;0.00;0.00;;;;;;;22.73;nan;100404.88;5050501;28;20443;-83
2023/06/12 05:33:48;;;;;;;0.00;0.00;;;;;;;22.89;nan;100407.66;5060581;28;20432;-84
2023/06/12 05:36:13;;;;;;;0.00;0.00;;;;;;;23.01;nan;100405.00;5051638;28;20442;-84
2023/06/12 05:38:43;;;;;;;0.00;0.00;;;;;;;23.14;nan;100405.78;5057008;28;20424;-85
2023/06/12 05:41:09;;;;;;;0.00;0.00;;;;;;;23.28;nan;100413.38;5065852;28;20428;-84
2023/06/12 05:43:34;;;;;;;0.00;0.00;;;;;;;23.46;nan;100406.19;5051634;28;20409;-85
2023/06/12 05:45:59;;;;;;;0.00;0.00;;;;;;;23.63;nan;100411.63;5064098;28;20403;-85
2023/06/12 05:48:24;;;;;;;0.00;0.00;;;;;;;23.83;nan;100400.41;5056009;28;20469;-85
2023/06/12 05:50:50;;;;;;;0.00;0.00;;;;;;;24.28;nan;100403.06;5056794;28;20397;-84
2023/06/12 05:53:15;;;;;;;0.00;0.00;;;;;;;24.84;nan;100399.59;5066576;28;20480;-84
2023/06/12 05:55:40;;;;;;;0.00;0.00;;;;;;;25.29;nan;100401.28;5063208;28;20405;-85
2023/06/12 05:58:05;;;;;;;0.00;0.00;;;;;;;25.90;nan;100401.16;5066581;28;20408;-84
2023/06/12 06:00:31;;;;;;;0.00;0.00;;;;;;;26.52;nan;100397.88;5057853;28;20423;-84
2023/06/12 06:02:56;;;;;;;0.00;0.00;;;;;;;26.60;nan;100392.00;5055828;28;20535;-84
2023/06/12 06:05:22;;;;;;;0.00;0.00;;;;;;;26.46;nan;100388.09;5053374;28;20414;-85
2023/06/12 06:07:50;;;;;;;0.00;0.00;;;;;;;26.74;nan;100395.06;5061296;28;20956;-86
2023/06/12 06:10:15;;;;;;;0.00;0.00;;;;;;;26.85;nan;100398.66;5052478;28;20411;-84
2023/06/12 06:12:41;;;;;;;0.00;0.00;;;;;;;27.05;nan;100400.63;5057239;28;20900;-83
2023/06/12 06:15:07;;;;;;;0.00;0.00;;;;;;;27.24;nan;100401.03;5061978;28;20411;-85
2023/06/12 06:17:32;;;;;;;0.00;0.00;;;;;;;27.56;nan;100409.00;5052718;28;20937;-85
2023/06/12 06:19:58;;;;;;;0.00;0.00;;;;;;;27.80;nan;100406.63;5054395;28;20509;-84
2023/06/12 06:22:24;;;;;;;0.00;0.00;;;;;;;27.95;nan;100403.94;5055395;28;20415;-85
2023/06/12 06:24:50;;;;;;;0.00;0.00;;;;;;;28.20;nan;100412.38;5064709;28;20415;-86
2023/06/12 06:27:15;;;;;;;0.00;0.00;;;;;;;28.47;nan;100412.94;5054514;28;20406;-84
2023/06/12 06:29:40;;;;;;;0.00;0.00;;;;;;;28.48;nan;100416.47;5055612;28;21001;-84
2023/06/12 06:32:06;;;;;;;0.00;0.00;;;;;;;28.62;nan;100416.72;5052827;28;20437;-85
2023/06/12 06:34:31;;;;;;;0.00;0.00;;;;;;;28.25;nan;100417.84;5062312;28;20405;-85
2023/06/12 06:36:57;;;;;;;0.00;0.00;;;;;;;28.24;nan;100410.75;5048195;28;20405;-85
2023/06/12 06:39:22;;;;;;;0.00;0.00;;;;;;;28.23;nan;100409.13;5055739;28;20409;-85
2023/06/12 06:41:48;;;;;;;0.00;0.00;;;;;;;28.34;nan;100418.88;5065745;28;20514;-84
2023/06/12 06:44:13;;;;;;;0.00;0.00;;;;;;;28.42;nan;100417.56;5056302;28;20758;-85
2023/06/12 06:46:39;;;;;;;0.00;0.00;;;;;;;28.82;nan;100422.13;5059729;28;20406;-84
2023/06/12 06:49:04;;;;;;;0.00;0.00;;;;;;;29.11;nan;100426.97;5039795;28;20441;-85
2023/06/12 06:51:31;;;;;;;0.00;0.00;;;;;;;29.13;nan;100432.97;5054041;28;20414;-85
2023/06/12 06:53:57;;;;;;;0.00;0.00;;;;;;;29.27;nan;100417.66;5056772;28;20772;-86
2023/06/12 06:56:23;;;;;;;0.00;0.00;;;;;;;28.97;nan;100429.44;5045524;28;20406;-85
2023/06/12 06:58:48;;;;;;;0.00;0.00;;;;;;;28.85;nan;100418.84;5048376;28;20406;-82
2023/06/12 07:01:14;;;;;;;0.00;0.00;;;;;;;28.82;nan;100432.19;5051090;28;20495;-84
2023/06/12 07:03:39;;;;;;;0.00;0.00;;;;;;;28.85;nan;100437.09;5045847;28;20484;-84
2023/06/12 07:06:05;;;;;;;0.00;0.00;;;;;;;28.72;nan;100433.88;5048706;28;20418;-85
2023/06/12 07:08:30;;;;;;;0.00;0.00;;;;;;;28.98;nan;100437.34;5049871;28;20881;-84
2023/06/12 07:10:55;;;;;;;0.00;0.00;;;;;;;29.10;nan;100442.47;5044476;28;20411;-86
2023/06/12 07:13:21;;;;;;;0.00;0.00;;;;;;;28.98;nan;100437.34;5055500;28;20981;-84
2023/06/12 07:15:46;;;;;;;0.00;0.00;;;;;;;29.63;nan;100440.06;5059986;28;21273;-83
2023/06/12 07:18:12;;;;;;;0.00;0.00;;;;;;;30.17;nan;100445.75;5044793;28;20419;-84
2023/06/12 07:20:37;;;;;;;0.00;0.00;;;;;;;30.51;nan;100440.31;5058873;28;20421;-84
2023/06/12 07:23:02;;;;;;;0.00;0.00;;;;;;;30.75;nan;100434.06;5054855;28;20867;-85
2023/06/12 07:25:28;;;;;;;0.00;0.00;;;;;;;30.83;nan;100434.28;5047678;28;20997;-85
2023/06/12 07:27:53;;;;;;;0.00;0.00;;;;;;;30.72;nan;100445.56;5057893;28;20474;-82
2023/06/12 07:30:19;;;;;;;0.00;0.00;;;;;;;30.87;nan;100439.97;5054690;28;20400;-85
2023/06/12 07:32:44;;;;;;;0.00;0.00;;;;;;;30.89;nan;100433.13;5048608;28;20433;-82
2023/06/12 07:35:10;;;;;;;0.00;0.00;;;;;;;30.66;nan;100448.34;5052877;28;20480;-84
2023/06/12 07:37:38;;;;;;;0.00;0.00;;;;;;;30.74;nan;100435.16;5049568;28;20409;-85
2023/06/12 07:40:10;;;;;;;0.00;0.00;;;;;;;30.88;nan;100445.13;5051939;28;20614;-81
2023/06/12 07:42:35;;;;;;;0.00;0.00;;;;;;;30.77;nan;100437.31;5045905;28;20483;-82
2023/06/12 07:45:01;;;;;;;0.00;0.00;;;;;;;30.51;nan;100442.22;5052138;28;20441;-81
2023/06/12 07:47:27;;;;;;;0.00;0.00;;;;;;;30.63;nan;100437.16;5046728;28;20417;-84
2023/06/12 07:49:53;;;;;;;0.00;0.00;;;;;;;30.83;nan;100437.00;5061699;28;20409;-84
2023/06/12 07:52:20;;;;;;;0.00;0.00;;;;;;;31.32;nan;100435.06;5057652;28;20441;-84
2023/06/12 07:54:47;;;;;;;0.00;0.00;;;;;;;31.83;nan;100428.13;5058650;28;20471;-84
2023/06/12 07:57:12;;;;;;;0.00;0.00;;;;;;;32.72;nan;100438.97;5056873;28;20504;-84
2023/06/12 07:59:38;;;;;;;0.00;0.00;;;;;;;31.99;nan;100431.44;5052063;28;20429;-83
2023/06/12 08:02:03;;;;;;;0.00;0.00;;;;;;;32.29;nan;100420.00;5057621;28;20465;-84
2023/06/12 08:04:29;;;;;;;0.00;0.00;;;;;;;32.71;nan;100429.13;5056319;28;20461;-82
2023/06/12 08:06:55;;;;;;;0.00;0.00;;;;;;;33.25;nan;100428.66;5061798;28;20917;-82
2023/06/12 08:09:20;;;;;;;0.00;0.00;;;;;;;33.90;nan;100427.50;5056040;28;20496;-83
2023/06/12 08:11:45;;;;;;;0.00;0.00;;;;;;;33.94;nan;100429.28;5055163;28;20413;-82
2023/06/12 08:14:11;;;;;;;0.00;0.00;;;;;;;33.87;nan;100423.44;5063832;28;20521;-81
2023/06/12 08:16:37;;;;;;;0.00;0.00;;;;;;;34.18;nan;100422.72;5047751;28;20799;-82
2023/06/12 08:19:03;;;;;;;0.00;0.00;;;;;;;34.66;nan;100420.13;5052894;28;20775;-82
2023/06/12 08:21:28;;;;;;;0.00;0.00;;;;;;;34.96;nan;100414.88;5059905;28;20407;-82
2023/06/12 08:23:54;;;;;;;0.00;0.00;;;;;;;35.26;nan;100409.66;5064829;28;20407;-82
2023/06/12 08:26:19;;;;;;;0.00;0.00;;;;;;;35.34;nan;100414.34;5056684;28;20492;-82
2023/06/12 08:28:51;;;;;;;0.00;0.00;;;;;;;34.44;nan;100415.47;5063344;28;20925;-82
2023/06/12 08:31:18;;;;;;;0.00;0.00;;;;;;;35.17;nan;100409.63;5062348;28;20393;-83
2023/06/12 08:33:45;;;;;;;0.00;0.00;;;;;;;35.93;nan;100405.66;5051715;28;20440;-84
2023/06/12 08:36:12;;;;;;;0.00;0.00;;;;;;;36.59;nan;100401.81;5053547;28;20676;-82
2023/06/12 08:38:37;;;;;;;0.00;0.00;;;;;;;37.18;nan;100394.38;5053385;28;20426;-83
2023/06/12 08:41:04;;;;;;;0.00;0.00;;;;;;;37.76;nan;100405.66;5047829;28;20411;-83
2023/06/12 08:43:30;;;;;;;0.00;0.00;;;;;;;37.61;nan;100406.25;5044434;28;20414;-84
2023/06/12 08:45:57;;;;;;;0.00;0.00;;;;;;;37.61;nan;100409.03;5043671;28;20423;-83
2023/06/12 08:48:26;;;;;;;0.00;0.00;;;;;;;37.92;nan;100405.00;5057883;28;20420;-83
2023/06/12 08:50:55;;;;;;;0.00;0.00;;;;;;;38.72;nan;100403.84;5042998;28;20960;-84
2023/06/12 08:53:22;;;;;;;0.00;0.00;;;;;;;39.00;nan;100399.28;5045191;28;20421;-84
2023/06/12 08:55:47;;;;;;;0.00;0.00;;;;;;;37.64;nan;100400.09;5051014;28;20870;-84
2023/06/12 08:58:13;;;;;;;0.00;0.00;;;;;;;36.50;nan;100394.38;5045880;28;20432;-84
2023/06/12 09:00:38;;;;;;;0.00;0.00;;;;;;;35.21;nan;100391.38;5047182;28;21037;-84
2023/06/12 09:03:06;;;;;;;0.00;0.00;;;;;;;34.80;nan;100391.72;5051567;28;20404;-84
2023/06/12 09:05:38;;;;;;;0.00;0.00;;;;;;;33.28;nan;100387.75;5057476;28;20454;-83
2023/06/12 09:08:05;;;;;;;0.00;0.00;;;;;;;33.78;nan;100395.16;5046150;28;20496;-83
2023/06/12 09:10:35;;;;;;;0.00;0.00;;;;;;;32.42;nan;100382.00;5056750;28;20436;-84
2023/06/12 09:13:11;;;;;;;0.00;0.00;;;;;;;32.94;nan;100393.63;5058823;28;20900;-84
2023/06/12 09:15:38;;;;;;;0.00;0.00;;;;;;;32.99;nan;100386.13;5062398;28;20438;-83
2023/06/12 09:18:09;;;;;;;0.00;0.00;;;;;;;32.53;nan;100391.69;5062762;28;20407;-83
2023/06/12 09:20:36;;;;;;;0.00;0.00;;;;;;;32.21;nan;100385.13;5061129;28;20395;-83
2023/06/12 09:23:04;;;;;;;0.00;0.00;;;;;;;32.30;nan;100383.31;5064179;28;20495;-84
2023/06/12 09:25:37;;;;;;;0.00;0.00;;;;;;;32.53;nan;100392.50;5065440;28;20408;-83
2023/06/12 09:28:04;;;;;;;0.00;0.00;;;;;;;32.41;nan;100389.41;5061814;28;20409;-82
2023/06/12 09:30:31;;;;;;;0.00;0.00;;;;;;;31.45;nan;100393.38;5063288;28;20974;-83
2023/06/12 09:32:59;;;;;;;0.00;0.00;;;;;;;31.86;nan;100395.50;5061297;28;20425;-84
2023/06/12 09:35:24;;;;;;;0.00;0.00;;;;;;;31.59;nan;100393.47;5069082;28;20404;-84
2023/06/12 09:37:50;;;;;;;0.00;0.00;;;;;;;32.63;nan;100396.97;5062722;28;20482;-83
2023/06/12 09:40:15;;;;;;;0.00;0.00;;;;;;;33.43;nan;100392.88;5065121;28;20420;-84
2023/06/12 09:42:42;;;;;;;0.00;0.00;;;;;;;33.60;nan;100386.75;5057532;28;20413;-84
2023/06/12 09:45:23;;;;;;;0.00;0.00;;;;;;;34.42;nan;100383.94;5058001;28;20457;-85
2023/06/12 09:47:50;;;;;;;0.00;0.00;;;;;;;34.65;nan;100380.03;5059691;28;20481;-85
2023/06/12 09:50:18;;;;;;;0.00;0.00;;;;;;;34.53;nan;100377.06;5048387;28;20793;-85
2023/06/12 09:52:46;;;;;;;0.00;0.00;;;;;;;35.60;nan;100386.06;5056785;28;20395;-84
2023/06/12 09:55:16;;;;;;;0.00;0.00;;;;;;;35.67;nan;100378.97;5061743;28;20403;-84
2023/06/12 09:57:52;;;;;;;0.00;0.00;;;;;;;34.87;nan;100378.31;5069088;28;20424;-85
2023/06/12 10:00:20;;;;;;;0.00;0.00;;;;;;;35.74;nan;100378.50;5063112;28;20450;-84
2023/06/12 10:02:55;;;;;;;0.00;0.00;;;;;;;35.23;nan;100378.13;5065220;28;20403;-84
2023/06/12 10:05:24;;;;;;;0.00;0.00;;;;;;;36.28;nan;100380.81;5054589;28;20782;-84
2023/06/12 10:07:55;;;;;;;0.00;0.00;;;;;;;36.41;nan;100374.31;5052354;28;20460;-84
2023/06/12 10:10:22;;;;;;;0.00;0.00;;;;;;;35.96;nan;100371.19;5060142;28;20417;-85
2023/06/12 10:12:50;;;;;;;0.00;0.00;;;;;;;36.74;nan;100369.00;5058151;28;20901;-85
2023/06/12 10:15:16;;;;;;;0.00;0.00;;;;;;;36.27;nan;100365.47;5056882;28;20418;-85
2023/06/12 10:17:43;;;;;;;0.00;0.00;;;;;;;35.71;nan;100370.91;5052243;28;20501;-85
2023/06/12 10:20:10;;;;;;;0.00;0.00;;;;;;;35.74;nan;100372.97;5063525;28;20810;-85
2023/06/12 10:22:37;;;;;;;0.00;0.00;;;;;;;37.23;nan;100373.28;5058823;28;20413;-84
2023/06/12 10:25:03;;;;;;;0.00;0.00;;;;;;;37.05;nan;100361.53;5059091;28;20416;-85
2023/06/12 10:27:30;;;;;;;0.00;0.00;;;;;;;37.88;nan;100370.94;5057312;28;20437;-84
2023/06/12 10:29:58;;;;;;;0.00;0.00;;;;;;;38.11;nan;100372.19;5061927;28;20419;-85
2023/06/12 10:32:24;;;;;;;0.00;0.00;;;;;;;37.88;nan;100359.91;5060972;28;20422;-85
2023/06/12 10:34:54;;;;;;;0.00;0.00;;;;;;;37.24;nan;100361.13;5057278;28;20413;-84
2023/06/12 10:37:41;;;;;;;0.00;0.00;;;;;;;35.42;nan;100353.06;5056126;28;20465;-85
2023/06/12 10:40:19;;;;;;;0.00;0.00;;;;;;;34.42;nan;100349.06;5053831;28;20417;-84
2023/06/12 10:42:54;;;;;;;0.00;0.00;;;;;;;35.49;nan;100360.81;5065359;28;20473;-85
2023/06/12 10:45:30;;;;;;;0.00;0.00;;;;;;;35.60;nan;100348.41;5065712;28;20516;-84
2023/06/12 10:48:11;;;;;;;0.00;0.00;;;;;;;35.13;nan;100353.69;5065879;28;21005;-83
2023/06/12 10:50:52;;;;;;;0.00;0.00;;;;;;;36.43;nan;100339.00;5071034;28;20404;-84
2023/06/12 10:53:26;;;;;;;0.00;0.00;;;;;;;36.73;nan;100333.50;5065873;28;20411;-84
2023/06/12 10:56:06;;;;;;;0.00;0.00;;;;;;;37.57;nan;100334.41;5066816;28;20402;-85
2023/06/12 10:58:40;;;;;;;0.00;0.00;;;;;;;37.46;nan;100343.41;5063030;28;20430;-84
2023/06/12 11:01:10;;;;;;;0.00;0.00;;;;;;;37.93;nan;100338.44;5060632;28;20987;-85
2023/06/12 11:03:42;;;;;;;0.00;0.00;;;;;;;38.16;nan;100347.16;5060168;28;20421;-86
2023/06/12 11:06:15;;;;;;;0.00;0.00;;;;;;;37.03;nan;100339.81;5062132;28;20801;-85
2023/06/12 11:08:45;;;;;;;0.00;0.00;;;;;;;35.03;nan;100335.53;5055161;28;20793;-84
2023/06/12 11:11:12;;;;;;;0.00;0.00;;;;;;;36.69;nan;100324.31;5061109;28;20416;-85
2023/06/12 11:13:45;;;;;;;0.00;0.00;;;;;;;38.43;nan;100333.81;5057259;28;20421;-85
2023/06/12 11:16:19;;;;;;;0.00;0.00;;;;;;;38.48;nan;100333.63;5049544;28;20895;-85
2023/06/12 11:19:02;;;;;;;0.00;0.00;;;;;;;38.05;nan;100332.16;5057209;28;20402;-84
2023/06/12 11:21:27;;;;;;;0.00;0.00;;;;;;;37.73;nan;100320.78;5056001;28;20636;-85
2023/06/12 11:23:52;;;;;;;0.00;0.00;;;;;;;35.38;nan;100316.34;5058560;28;20408;-84
2023/06/12 11:26:18;;;;;;;0.00;0.00;;;;;;;35.67;nan;100323.97;5068362;28;20406;-83
2023/06/12 11:28:44;;;;;;;0.00;0.00;;;;;;;37.11;nan;100319.66;5045092;28;20830;-83
2023/06/12 11:31:09;;;;;;;0.00;0.00;;;;;;;38.54;nan;100314.84;5062138;28;20406;-83
2023/06/12 11:33:35;;;;;;;0.00;0.00;;;;;;;39.14;nan;100323.41;5058793;28;20405;-84
2023/06/12 11:36:01;;;;;;;0.00;0.00;;;;;;;38.90;nan;100319.50;5060656;28;20508;-83
2023/06/12 11:38:27;;;;;;;0.00;0.00;;;;;;;39.62;nan;100319.69;5055585;28;20498;-84
2023/06/12 11:40:53;;;;;;;0.00;0.00;;;;;;;39.77;nan;100320.88;5051752;28;20406;-83